Time;durP1;ratioP1;P1;durP2;ratioP2;P2;SDS_P1;SDS_P2;PMS_P1;PMS_P2;Temp;Humidity;BMP_temperature;BMP_pressure;BME280_temperature;BME280_humidity;BME280_pressure;Samples;Min_cycle;Max_cycle;Signal;HPM_P1;HPM_P2
2020/12/23 00:02:05;;;;;;;77.68;36.58;;;;;;;8.99;100.00;101391.63;5025128;28;20157;-76
2020/12/23 00:04:31;;;;;;;72.65;37.10;;;;;;;9.03;100.00;101399.22;5025306;28;20115;-76
2020/12/23 00:06:56;;;;;;;83.88;38.72;;;;;;;9.01;100.00;101395.00;5004651;28;20117;-76
2020/12/23 00:09:23;;;;;;;88.20;39.40;;;;;;;9.02;100.00;101404.69;5041371;28;20120;-76
2020/12/23 00:11:52;;;;;;;85.82;38.45;;;;;;;9.06;100.00;101398.09;5048835;28;20037;-75
2020/12/23 00:14:18;;;;;;;80.80;37.35;;;;;;;9.06;100.00;101387.47;5027126;28;20041;-75
2020/12/23 00:16:43;;;;;;;87.95;36.75;;;;;;;9.04;100.00;101384.94;5021917;28;20065;-76
2020/12/23 00:19:09;;;;;;;82.72;39.00;;;;;;;9.07;100.00;101377.66;5030905;28;20127;-76
2020/12/23 00:21:34;;;;;;;79.15;39.40;;;;;;;9.07;100.00;101380.34;5039888;28;20467;-76
2020/12/23 00:24:00;;;;;;;80.88;38.75;;;;;;;8.99;100.00;101373.00;5036398;28;20123;-76
2020/12/23 00:26:26;;;;;;;87.95;38.30;;;;;;;8.98;100.00;101358.00;5010212;28;20398;-76
2020/12/23 00:28:51;;;;;;;91.60;40.83;;;;;;;9.09;100.00;101375.72;5022146;28;20037;-75
2020/12/23 00:31:17;;;;;;;92.72;40.60;;;;;;;8.83;100.00;101338.81;5041163;28;20151;-75
2020/12/23 00:33:43;;;;;;;94.20;41.38;;;;;;;8.83;100.00;101333.50;5019445;28;20147;-75
2020/12/23 00:36:14;;;;;;;91.43;41.50;;;;;;;9.03;100.00;101366.41;5041471;28;20581;-75
2020/12/23 00:38:40;;;;;;;90.13;40.28;;;;;;;9.03;100.00;101367.28;5019936;28;20036;-75
2020/12/23 00:41:09;;;;;;;96.70;41.03;;;;;;;9.00;100.00;101348.91;5030016;28;20530;-75
2020/12/23 00:43:35;;;;;;;90.97;41.35;;;;;;;9.06;100.00;101360.84;4986528;28;620794;-75
2020/12/23 00:46:00;;;;;;;104.05;43.10;;;;;;;9.07;100.00;101356.38;5021786;28;20116;-75
2020/12/23 00:48:26;;;;;;;103.95;41.88;;;;;;;9.05;100.00;101345.84;5022632;28;20559;-75
2020/12/23 00:50:52;;;;;;;103.22;43.97;;;;;;;8.99;100.00;101344.53;5040830;28;20111;-75
2020/12/23 00:53:17;;;;;;;122.50;44.42;;;;;;;8.82;100.00;101313.22;5021683;28;20406;-75
2020/12/23 00:55:43;;;;;;;114.25;46.28;;;;;;;9.00;100.00;101332.91;5024062;28;20674;-75
2020/12/23 00:58:09;;;;;;;122.60;46.60;;;;;;;8.87;100.00;101309.19;5043375;28;21199;-75
2020/12/23 01:00:35;;;;;;;114.82;45.45;;;;;;;8.98;100.00;101342.03;5023582;28;20033;-75
2020/12/23 01:03:01;;;;;;;116.35;45.38;;;;;;;8.93;100.00;101337.09;5028385;28;20120;-75
2020/12/23 01:05:26;;;;;;;125.05;47.65;;;;;;;9.01;100.00;101355.91;5024144;28;20039;-75
2020/12/23 01:07:52;;;;;;;124.70;48.28;;;;;;;8.86;100.00;101319.94;5039461;28;20514;-75
2020/12/23 01:10:17;;;;;;;129.85;50.45;;;;;;;8.82;100.00;101311.38;5018148;28;20038;-75
2020/12/23 01:12:43;;;;;;;125.25;46.83;;;;;;;9.07;100.00;101340.41;5006577;28;20036;-75
2020/12/23 01:15:08;;;;;;;120.15;46.55;;;;;;;9.12;100.00;101349.69;5039662;28;20044;-75
2020/12/23 01:17:34;;;;;;;132.02;49.95;;;;;;;8.99;100.00;101330.41;5028737;28;20045;-75
2020/12/23 01:20:01;;;;;;;145.40;51.63;;;;;;;8.90;100.00;101313.38;5015704;28;20033;-76
2020/12/23 01:22:27;;;;;;;123.70;48.35;;;;;;;9.07;100.00;101329.75;5008707;28;20068;-75
2020/12/23 01:24:52;;;;;;;135.73;49.63;;;;;;;9.10;100.00;101340.13;5007528;28;20120;-76
2020/12/23 01:27:18;;;;;;;119.45;46.92;;;;;;;9.09;100.00;101333.13;5022163;28;20036;-79
2020/12/23 01:29:43;;;;;;;122.20;47.58;;;;;;;9.17;100.00;101331.47;5046070;28;20123;-76
2020/12/23 01:32:09;;;;;;;139.18;48.78;;;;;;;9.11;100.00;101326.69;5042328;28;20123;-76
2020/12/23 01:34:34;;;;;;;133.95;51.33;;;;;;;9.08;100.00;101320.78;5026365;28;20933;-76
2020/12/23 01:37:00;;;;;;;132.15;49.40;;;;;;;9.10;100.00;101316.16;5044880;28;20562;-80
2020/12/23 01:39:25;;;;;;;136.55;51.38;;;;;;;9.09;100.00;101320.66;5025734;28;20526;-75
2020/12/23 01:41:57;;;;;;;136.07;51.60;;;;;;;9.07;100.00;101303.13;5041368;28;21492;-75
2020/12/23 01:44:23;;;;;;;146.23;51.63;;;;;;;8.97;100.00;101287.09;5012213;28;20063;-75
2020/12/23 01:46:49;;;;;;;145.50;51.58;;;;;;;9.03;100.00;101308.72;5025802;28;20136;-75
2020/12/23 01:49:14;;;;;;;143.65;53.05;;;;;;;9.11;100.00;101310.72;5026503;28;20033;-75
2020/12/23 01:51:40;;;;;;;152.75;53.92;;;;;;;9.10;100.00;101311.69;5023222;28;20113;-75
2020/12/23 01:54:05;;;;;;;150.75;51.60;;;;;;;8.96;100.00;101283.56;5014319;28;20140;-75
2020/12/23 01:56:31;;;;;;;160.77;54.97;;;;;;;9.10;100.00;101314.34;5023953;28;20035;-75
2020/12/23 01:58:57;;;;;;;166.18;55.60;;;;;;;9.11;100.00;101308.06;5016416;28;20033;-77
2020/12/23 02:01:24;;;;;;;158.52;55.55;;;;;;;9.06;100.00;101291.63;5015782;28;20038;-75
2020/12/23 02:03:50;;;;;;;147.63;53.40;;;;;;;8.93;100.00;101270.56;5036639;28;20065;-75
2020/12/23 02:06:15;;;;;;;173.02;57.72;;;;;;;8.93;100.00;101262.56;5006842;28;20099;-75
2020/12/23 02:08:41;;;;;;;144.02;52.65;;;;;;;9.17;100.00;101288.03;5004291;28;20092;-75
2020/12/23 02:11:09;;;;;;;163.98;56.08;;;;;;;9.17;100.00;101283.53;5058371;28;20067;-75
2020/12/23 02:13:44;;;;;;;155.38;55.00;;;;;;;9.01;100.00;101253.91;5054752;28;20510;-75
2020/12/23 02:16:10;;;;;;;155.93;54.92;;;;;;;9.18;100.00;101282.56;5021188;28;20049;-75
2020/12/23 02:18:36;;;;;;;157.80;55.05;;;;;;;9.19;100.00;101284.25;5019994;28;20036;-74
2020/12/23 02:21:02;;;;;;;170.27;57.20;;;;;;;9.07;100.00;101258.69;5029786;28;20068;-75
2020/12/23 02:23:27;;;;;;;170.38;55.60;;;;;;;8.76;100.00;101201.97;5025871;28;20136;-75
2020/12/23 02:25:53;;;;;;;186.10;58.92;;;;;;;9.23;100.00;101265.34;5015573;28;20509;-75
2020/12/23 02:28:21;;;;;;;193.73;59.55;;;;;;;9.23;100.00;101257.38;5037537;28;20541;-75
2020/12/23 02:30:47;;;;;;;185.40;58.13;;;;;;;9.23;100.00;101250.19;5024652;28;20479;-75
2020/12/23 02:33:13;;;;;;;195.30;61.58;;;;;;;9.18;100.00;101245.28;5030240;28;20049;-75
2020/12/23 02:35:38;;;;;;;196.15;59.67;;;;;;;9.27;100.00;101256.13;5035746;28;20055;-74
2020/12/23 02:38:04;;;;;;;208.07;62.22;;;;;;;9.25;100.00;101266.06;5044662;28;20120;-75
2020/12/23 02:40:29;;;;;;;161.90;55.67;;;;;;;9.28;100.00;101255.16;5045472;28;20038;-75
2020/12/23 02:42:55;;;;;;;213.25;63.78;;;;;;;9.34;100.00;101259.94;5014766;28;20141;-75
2020/12/23 02:45:20;;;;;;;171.88;55.75;;;;;;;9.42;100.00;101270.75;5001621;28;20129;-75
2020/12/23 02:47:46;;;;;;;204.02;61.25;;;;;;;9.43;100.00;101258.28;4980832;28;20126;-75
2020/12/23 02:50:11;;;;;;;223.85;61.35;;;;;;;9.45;100.00;101257.16;4996160;28;20053;-74
2020/12/23 02:52:37;;;;;;;215.88;63.30;;;;;;;9.45;100.00;101256.31;4993792;28;20034;-75
2020/12/23 02:55:02;;;;;;;201.68;61.80;;;;;;;9.41;100.00;101247.78;4998250;28;20029;-75
2020/12/23 02:57:28;;;;;;;236.52;64.38;;;;;;;9.40;100.00;101243.41;4986494;28;20087;-75
2020/12/23 02:59:53;;;;;;;210.82;61.63;;;;;;;9.44;100.00;101236.00;4985340;28;20041;-75
2020/12/23 03:02:19;;;;;;;216.23;63.13;;;;;;;9.38;100.00;101221.41;4995448;28;20741;-74
2020/12/23 03:04:44;;;;;;;255.20;65.78;;;;;;;9.38;100.00;101217.88;4998422;28;20057;-74
2020/12/23 03:07:10;;;;;;;212.27;63.92;;;;;;;9.39;100.00;101217.75;4998857;28;20038;-76
2020/12/23 03:09:36;;;;;;;231.68;66.82;;;;;;;9.41;100.00;101220.28;4998881;28;20040;-75
2020/12/23 03:12:01;;;;;;;260.00;71.13;;;;;;;9.40;100.00;101215.91;4992627;28;20121;-75
2020/12/23 03:14:27;;;;;;;243.27;69.18;;;;;;;9.42;100.00;101217.50;4981498;28;20046;-75
2020/12/23 03:16:52;;;;;;;284.90;71.38;;;;;;;9.44;100.00;101214.69;4998966;28;20042;-75
2020/12/23 03:19:18;;;;;;;274.10;70.63;;;;;;;9.43;100.00;101202.34;4996522;28;20034;-74
2020/12/23 03:21:43;;;;;;;283.58;73.80;;;;;;;9.45;100.00;101200.38;4995050;28;20145;-75
2020/12/23 03:24:09;;;;;;;268.60;72.20;;;;;;;9.46;100.00;101207.41;4998434;28;20461;-74
2020/12/23 03:26:34;;;;;;;274.00;76.03;;;;;;;9.50;100.00;101200.78;4999349;28;20133;-74
2020/12/23 03:29:00;;;;;;;297.67;77.63;;;;;;;9.56;100.00;101197.59;5004914;28;20128;-75
2020/12/23 03:31:29;;;;;;;274.15;76.15;;;;;;;9.56;100.00;101194.09;4998897;28;20033;-74
2020/12/23 03:33:54;;;;;;;296.02;81.72;;;;;;;9.68;100.00;101195.66;4998331;28;20507;-74
2020/12/23 03:36:20;;;;;;;283.08;79.20;;;;;;;9.70;100.00;101188.38;4986301;28;20129;-74
2020/12/23 03:38:45;;;;;;;274.80;75.95;;;;;;;9.72;100.00;101188.22;5001719;28;20511;-74
2020/12/23 03:41:11;;;;;;;273.73;77.32;;;;;;;9.74;100.00;101187.09;5010176;28;20568;-74
2020/12/23 03:43:36;;;;;;;256.77;76.97;;;;;;;9.77;100.00;101184.16;5006216;28;20567;-74
2020/12/23 03:46:02;;;;;;;275.40;77.05;;;;;;;9.84;100.00;101187.09;5004437;28;20106;-74
2020/12/23 03:48:28;;;;;;;329.80;83.03;;;;;;;9.83;100.00;101189.91;4988992;28;20053;-75
2020/12/23 03:50:53;;;;;;;258.60;77.70;;;;;;;9.79;100.00;101186.66;5004942;28;20134;-74
2020/12/23 03:53:19;;;;;;;276.75;78.13;;;;;;;9.80;100.00;101186.53;4983353;28;20161;-75
2020/12/23 03:55:44;;;;;;;285.13;80.00;;;;;;;9.79;100.00;101171.53;5005466;28;20109;-75
2020/12/23 03:58:10;;;;;;;302.10;83.00;;;;;;;9.79;100.00;101168.88;5003426;28;20093;-75
2020/12/23 04:00:35;;;;;;;290.52;79.78;;;;;;;9.78;100.00;101155.66;5010156;28;20479;-75
2020/12/23 04:03:01;;;;;;;308.83;82.63;;;;;;;9.78;100.00;101145.88;5005620;28;20125;-75
2020/12/23 04:05:26;;;;;;;279.50;79.93;;;;;;;9.78;100.00;101142.34;5000760;28;20509;-74
2020/12/23 04:07:52;;;;;;;252.93;75.72;;;;;;;9.79;100.00;101150.22;5009379;28;20037;-73
2020/12/23 04:10:18;;;;;;;236.82;75.57;;;;;;;9.88;100.00;101151.19;4999776;28;20184;-74
2020/12/23 04:12:43;;;;;;;204.32;71.90;;;;;;;9.94;100.00;101157.78;5008391;28;20129;-73
2020/12/23 04:15:09;;;;;;;223.88;73.88;;;;;;;9.77;100.00;101132.69;4997919;28;20117;-74
2020/12/23 04:17:35;;;;;;;254.75;79.30;;;;;;;9.93;100.00;101169.44;4985882;28;20030;-74
2020/12/23 04:20:02;;;;;;;225.40;73.95;;;;;;;9.88;100.00;101153.88;5010905;28;20041;-75
2020/12/23 04:22:30;;;;;;;239.95;76.82;;;;;;;10.01;100.00;101163.41;4988358;28;20600;-74
2020/12/23 04:24:59;;;;;;;237.10;77.60;;;;;;;9.83;100.00;101123.28;4988084;28;20041;-74
2020/12/23 04:27:25;;;;;;;234.43;74.53;;;;;;;10.07;100.00;101147.66;5004684;28;20580;-74
2020/12/23 04:29:50;;;;;;;216.10;75.70;;;;;;;10.09;100.00;101145.72;4990459;28;20092;-75
2020/12/23 04:32:16;;;;;;;262.58;76.68;;;;;;;10.10;100.00;101147.38;5006291;28;20133;-74
2020/12/23 04:34:42;;;;;;;254.57;78.97;;;;;;;10.07;100.00;101126.34;4976368;28;20041;-74
2020/12/23 04:37:07;;;;;;;245.25;78.40;;;;;;;10.09;100.00;101123.50;4989010;28;20113;-74
2020/12/23 04:39:33;;;;;;;202.52;72.07;;;;;;;10.05;100.00;101101.63;5002533;28;20037;-74
2020/12/23 04:41:59;;;;;;;203.65;72.43;;;;;;;10.23;100.00;101116.91;4998612;28;20471;-79
2020/12/23 04:44:24;;;;;;;193.25;70.30;;;;;;;10.24;100.00;101116.75;5038811;28;20073;-74
2020/12/23 04:46:50;;;;;;;238.05;77.20;;;;;;;10.28;100.00;101111.97;5008164;28;20044;-74
2020/12/23 04:49:16;;;;;;;204.88;73.25;;;;;;;10.22;100.00;101105.38;5030033;28;20040;-74
2020/12/23 04:51:42;;;;;;;222.38;75.10;;;;;;;10.29;100.00;101105.66;4999373;28;20620;-74
2020/12/23 04:54:08;;;;;;;202.20;71.78;;;;;;;10.27;100.00;101096.94;5020726;28;20116;-74
2020/12/23 04:56:34;;;;;;;205.77;71.85;;;;;;;10.15;100.00;101058.09;5027006;28;20053;-74
2020/12/23 04:59:00;;;;;;;178.80;68.60;;;;;;;10.09;100.00;101063.03;5014182;28;20048;-76
2020/12/23 05:01:26;;;;;;;175.68;67.38;;;;;;;10.22;100.00;101094.72;5031784;28;20045;-75
2020/12/23 05:03:52;;;;;;;190.60;67.32;;;;;;;10.28;100.00;101109.28;5020688;28;20061;-74
2020/12/23 05:06:18;;;;;;;198.18;69.95;;;;;;;10.27;100.00;101107.59;5038574;28;20132;-73
2020/12/23 05:08:43;;;;;;;178.30;66.43;;;;;;;10.34;100.00;101111.41;5034802;28;20333;-74
2020/12/23 05:11:10;;;;;;;197.27;69.63;;;;;;;10.36;100.00;101108.56;5036239;28;20567;-74
2020/12/23 05:13:36;;;;;;;168.77;65.60;;;;;;;10.31;100.00;101098.34;5048537;28;20372;-73
2020/12/23 05:16:03;;;;;;;151.70;63.03;;;;;;;10.37;100.00;101088.91;5018656;28;20047;-74
2020/12/23 05:18:39;;;;;;;178.43;64.55;;;;;;;10.41;100.00;101079.66;5001046;28;20034;-74
2020/12/23 05:21:14;;;;;;;154.75;62.03;;;;;;;10.33;100.00;101055.50;5040718;28;20139;-75
2020/12/23 05:23:49;;;;;;;153.15;59.70;;;;;;;10.18;100.00;101036.47;5023513;28;20028;-74
2020/12/23 05:26:15;;;;;;;153.70;60.80;;;;;;;10.43;100.00;101074.19;5023948;28;20043;-75
2020/12/23 05:28:41;;;;;;;136.73;57.10;;;;;;;10.42;100.00;101070.69;5046882;28;20040;-75
2020/12/23 05:31:08;;;;;;;152.30;58.97;;;;;;;10.43;100.00;101071.50;5030074;28;20032;-75
2020/12/23 05:33:41;;;;;;;144.65;56.42;;;;;;;10.44;100.00;101058.03;5017526;28;20068;-75
2020/12/23 05:36:11;;;;;;;151.50;57.88;;;;;;;10.41;100.00;101059.16;5050583;28;20044;-74
2020/12/23 05:38:37;;;;;;;141.57;56.97;;;;;;;10.20;100.00;101023.84;5001557;28;20041;-75
2020/12/23 05:41:04;;;;;;;151.52;60.95;;;;;;;10.26;100.00;101033.91;5020657;28;20121;-75
2020/12/23 05:43:30;;;;;;;142.85;57.55;;;;;;;10.22;100.00;101035.22;5007801;28;20061;-75
2020/12/23 05:46:00;;;;;;;155.07;58.55;;;;;;;10.39;100.00;101068.31;5055162;28;20048;-74
2020/12/23 05:48:29;;;;;;;154.93;57.63;;;;;;;10.41;100.00;101064.50;5011351;28;20033;-74
2020/12/23 05:50:55;;;;;;;147.60;56.25;;;;;;;10.34;100.00;101041.19;5023959;28;20044;-74
2020/12/23 05:53:20;;;;;;;133.93;54.03;;;;;;;10.46;100.00;101063.22;5006664;28;20124;-74
2020/12/23 05:55:46;;;;;;;124.60;51.28;;;;;;;10.49;100.00;101061.09;4983668;28;20028;-74
2020/12/23 05:58:25;;;;;;;119.97;50.63;;;;;;;10.49;100.00;101058.41;4993964;28;20037;-73
2020/12/23 06:00:51;;;;;;;120.90;51.08;;;;;;;10.55;100.00;101052.50;5017789;28;20411;-75
2020/12/23 06:03:44;;;;;;;125.40;49.83;;;;;;;10.44;100.00;101036.69;5037587;28;20037;-75
2020/12/23 06:06:09;;;;;;;129.23;52.17;;;;;;;10.00;100.00;100961.75;5011119;28;20071;-80
2020/12/23 06:08:36;;;;;;;110.95;48.15;;;;;;;10.48;100.00;101037.25;4967546;28;20030;-74
2020/12/23 06:11:20;;;;;;;125.93;49.47;;;;;;;10.53;100.00;101038.47;5024621;28;20082;-74
2020/12/23 06:14:06;;;;;;;114.72;48.13;;;;;;;10.51;100.00;101035.09;5012137;28;20037;-74
2020/12/23 06:16:59;;;;;;;107.47;46.03;;;;;;;10.25;100.00;100986.88;5023991;28;20041;-74
2020/12/23 06:19:36;;;;;;;119.28;45.33;;;;;;;10.55;100.00;101033.84;5039084;28;20500;-74
2020/12/23 06:22:02;;;;;;;97.80;42.80;;;;;;;10.57;100.00;101031.84;5011557;28;20060;-75
2020/12/23 06:24:28;;;;;;;100.75;40.58;;;;;;;10.56;100.00;101022.16;5014026;28;20497;-73
2020/12/23 06:26:57;;;;;;;96.95;41.20;;;;;;;10.27;100.00;100966.25;5011295;28;20131;-75
2020/12/23 06:29:27;;;;;;;81.00;38.40;;;;;;;10.66;100.00;101023.94;4990594;28;20043;-75
2020/12/23 06:31:55;;;;;;;84.75;38.63;;;;;;;10.68;100.00;101029.97;5023356;28;20047;-75
2020/12/23 06:34:25;;;;;;;97.93;40.03;;;;;;;10.67;100.00;101014.94;5012888;28;20087;-75
2020/12/23 06:36:51;;;;;;;84.75;38.58;;;;;;;10.22;100.00;100949.88;5021197;28;20048;-75
2020/12/23 06:39:35;;;;;;;97.53;42.60;;;;;;;10.68;100.00;101020.13;4970058;28;20546;-75
2020/12/23 06:42:00;;;;;;;95.05;40.97;;;;;;;10.67;100.00;101014.94;5019398;28;20090;-75
2020/12/23 06:44:42;;;;;;;88.90;40.72;;;;;;;10.68;100.00;101019.28;5016816;28;20116;-74
2020/12/23 06:47:11;;;;;;;73.28;37.08;;;;;;;10.61;100.00;101004.84;5017512;28;20132;-75
2020/12/23 06:49:46;;;;;;;83.53;38.97;;;;;;;10.58;100.00;100992.66;5016289;28;20080;-75
2020/12/23 06:52:24;;;;;;;81.95;39.17;;;;;;;10.72;100.00;101029.50;5013799;28;20036;-75
2020/12/23 06:54:53;;;;;;;78.85;39.25;;;;;;;10.65;100.00;101019.59;5022318;28;20081;-74
2020/12/23 06:57:34;;;;;;;88.97;40.40;;;;;;;10.65;100.00;101015.09;5016153;28;20068;-77
2020/12/23 07:00:03;;;;;;;67.85;36.50;;;;;;;10.68;100.00;101011.28;5026643;28;20121;-74
2020/12/23 07:02:28;;;;;;;;;;;;;;;10.69;100.00;101011.13;5013922;28;20049;-73
2020/12/23 07:04:54;;;;;;;85.93;39.03;;;;;;;10.45;100.00;100979.66;5021216;28;20291;-73
2020/12/23 07:07:37;;;;;;;73.03;37.80;;;;;;;10.64;100.00;101007.22;4986001;28;20041;-74
2020/12/23 07:10:21;;;;;;;69.10;35.97;;;;;;;10.62;100.00;101006.53;5021794;28;20037;-73
2020/12/23 07:12:52;;;;;;;73.55;36.97;;;;;;;10.32;100.00;100961.31;5009486;28;20029;-75
2020/12/23 07:15:22;;;;;;;76.40;35.92;;;;;;;10.64;100.00;101005.41;5027142;28;20041;-75
2020/12/23 07:17:52;;;;;;;69.85;35.58;;;;;;;10.63;100.00;101003.72;5027044;28;20459;-75
2020/12/23 07:20:18;;;;;;;68.22;34.45;;;;;;;10.63;100.00;101002.88;5029529;28;20129;-75
2020/12/23 07:22:48;;;;;;;70.05;33.97;;;;;;;10.61;100.00;101012.84;4994653;28;20504;-76
2020/12/23 07:25:27;;;;;;;62.47;33.17;;;;;;;10.62;100.00;101006.53;5008638;28;20040;-73
2020/12/23 07:27:58;;;;;;;86.97;38.88;;;;;;;10.53;100.00;100986.91;5024113;28;20142;-75
2020/12/23 07:30:25;;;;;;;81.97;37.58;;;;;;;10.56;100.00;100991.97;5023552;28;20036;-75
2020/12/23 07:33:00;;;;;;;75.50;34.40;;;;;;;10.63;100.00;100994.88;5000401;28;20686;-74
2020/12/23 07:35:26;;;;;;;61.22;29.52;;;;;;;10.67;100.00;101002.44;5019564;28;20044;-75
2020/12/23 07:37:52;;;;;;;68.40;31.08;;;;;;;10.63;100.00;101005.53;5025371;28;20063;-75
2020/12/23 07:40:17;;;;;;;63.35;28.77;;;;;;;10.51;100.00;100991.59;5024699;28;20126;-75
2020/12/23 07:42:49;;;;;;;54.88;26.90;;;;;;;10.62;100.00;100994.03;5019248;28;20184;-75
2020/12/23 07:45:15;;;;;;;51.88;25.70;;;;;;;10.55;100.00;100982.28;4999065;28;20044;-75
2020/12/23 07:48:02;;;;;;;55.22;26.48;;;;;;;10.63;100.00;100994.88;5011378;28;20032;-73
2020/12/23 07:50:33;;;;;;;51.85;25.80;;;;;;;10.64;100.00;101004.56;5024675;28;20044;-73
2020/12/23 07:53:07;;;;;;;54.25;25.08;;;;;;;10.65;100.00;100993.75;5027324;28;20776;-75
2020/12/23 07:55:33;;;;;;;52.17;25.20;;;;;;;10.69;100.00;100999.63;5029146;28;20060;-73
2020/12/23 07:57:58;;;;;;;46.67;23.52;;;;;;;10.71;100.00;101001.16;5041899;28;20041;-81
2020/12/23 08:00:24;;;;;;;39.65;21.23;;;;;;;10.70;100.00;101003.97;5007326;28;20026;-75
2020/12/23 08:02:53;;;;;;;47.33;21.95;;;;;;;10.68;100.00;101012.13;5011213;28;20128;-76
2020/12/23 08:05:19;;;;;;;42.38;19.83;;;;;;;10.69;100.00;101013.78;5044391;28;20087;-76
2020/12/23 08:07:44;;;;;;;34.13;18.63;;;;;;;10.69;100.00;101007.63;5007150;28;20120;-76
2020/12/23 08:10:16;;;;;;;35.55;18.00;;;;;;;10.69;100.00;101007.63;5049458;28;20514;-76
2020/12/23 08:12:56;;;;;;;34.05;18.02;;;;;;;10.62;100.00;100991.38;5012213;28;20403;-73
2020/12/23 08:15:21;;;;;;;45.47;20.10;;;;;;;10.59;100.00;100994.34;4994483;28;20099;-76
2020/12/23 08:17:47;;;;;;;39.50;18.83;;;;;;;10.77;100.00;101010.38;4978609;28;20057;-76
2020/12/23 08:20:16;;;;;;;43.33;19.15;;;;;;;10.65;100.00;100982.22;5023989;28;20036;-81
2020/12/23 08:22:43;;;;;;;41.72;20.42;;;;;;;10.74;100.00;100996.50;5021775;28;20029;-77
2020/12/23 08:25:11;;;;;;;41.58;20.65;;;;;;;10.76;100.00;101000.69;5007735;28;20044;-77
2020/12/23 08:27:37;;;;;;;39.90;20.15;;;;;;;10.24;100.00;100914.06;5019880;28;20045;-76
2020/12/23 08:30:05;;;;;;;47.00;21.30;;;;;;;10.78;100.00;101001.38;5003614;28;20048;-77
2020/12/23 08:32:50;;;;;;;41.85;20.92;;;;;;;10.76;100.00;100999.88;5016495;28;20446;-76
2020/12/23 08:35:15;;;;;;;39.80;21.27;;;;;;;10.77;100.00;101004.22;5017415;28;20037;-77
2020/12/23 08:37:41;;;;;;;42.70;22.60;;;;;;;10.81;100.00;101008.25;4971022;28;20123;-77
2020/12/23 08:40:07;;;;;;;37.88;22.48;;;;;;;10.80;100.00;101003.88;5018005;28;20047;-77
2020/12/23 08:42:33;;;;;;;37.42;22.30;;;;;;;10.80;100.00;101003.88;5022603;28;20045;-77
2020/12/23 08:44:59;;;;;;;39.03;24.20;;;;;;;10.78;100.00;100997.88;5037410;28;20053;-78
2020/12/23 08:47:32;;;;;;;40.97;24.98;;;;;;;10.80;100.00;101003.88;5006458;28;20087;-77
2020/12/23 08:49:58;;;;;;;37.97;25.25;;;;;;;10.57;100.00;100972.28;5003973;28;20033;-77
2020/12/23 08:52:25;;;;;;;38.78;25.48;;;;;;;10.83;100.00;101011.59;5014320;28;20041;-77
2020/12/23 08:54:50;;;;;;;26.38;21.10;;;;;;;10.38;100.00;100934.06;5016558;28;20059;-77
2020/12/23 08:57:21;;;;;;;32.55;21.08;;;;;;;10.91;100.00;101014.38;5023525;28;20418;-77
2020/12/23 08:59:46;;;;;;;26.70;19.70;;;;;;;10.92;100.00;101018.72;5022012;28;20102;-80
2020/12/23 09:02:13;;;;;;;26.42;19.80;;;;;;;10.90;100.00;101009.16;5036878;28;20049;-77
2020/12/23 09:04:38;;;;;;;24.00;19.20;;;;;;;10.84;100.00;101002.59;5016349;28;20041;-77
2020/12/23 09:07:04;;;;;;;23.83;19.80;;;;;;;10.64;100.00;100959.19;5017348;28;20144;-77
2020/12/23 09:09:29;;;;;;;24.70;18.45;;;;;;;10.91;100.00;101005.50;5005517;28;20045;-77
2020/12/23 09:11:56;;;;;;;24.02;18.85;;;;;;;10.88;100.00;101004.00;5005017;28;20041;-77
2020/12/23 09:14:23;;;;;;;24.58;19.48;;;;;;;10.58;100.00;100949.97;5015791;28;20041;-77
2020/12/23 09:17:01;;;;;;;24.30;19.35;;;;;;;10.71;100.00;100977.13;5000199;28;20087;-78
2020/12/23 09:19:42;;;;;;;;;;;;;;;10.82;100.00;100996.56;5018029;28;20032;-78
2020/12/23 09:22:09;;;;;;;24.00;19.05;;;;;;;10.80;100.00;100979.88;5037629;28;19920;-77
2020/12/23 09:24:34;;;;;;;23.13;18.30;;;;;;;10.86;100.00;100985.44;5001330;28;20064;-77
2020/12/23 09:27:01;;;;;;;20.75;17.75;;;;;;;10.82;100.00;100976.06;5018096;28;20080;-78
2020/12/23 09:29:42;;;;;;;24.08;18.70;;;;;;;10.88;100.00;100985.31;5019307;28;20421;-77
2020/12/23 09:32:08;;;;;;;25.25;18.60;;;;;;;10.80;100.00;100961.19;4994230;28;20052;-77
2020/12/23 09:34:33;;;;;;;26.55;19.48;;;;;;;10.85;100.00;100970.44;5019045;28;20491;-77
2020/12/23 09:36:59;;;;;;;29.05;21.13;;;;;;;10.85;100.00;100973.09;5035551;28;20033;-78
2020/12/23 09:39:25;;;;;;;26.40;20.35;;;;;;;10.90;100.00;100966.44;5017265;28;20029;-77
2020/12/23 09:42:00;;;;;;;27.02;21.48;;;;;;;10.90;100.00;100961.97;5034750;28;20075;-77
2020/12/23 09:44:26;;;;;;;28.52;21.63;;;;;;;10.88;100.00;100956.75;5019440;28;20110;-77
2020/12/23 09:46:52;;;;;;;26.63;20.70;;;;;;;10.88;100.00;100955.94;5006773;28;20219;-75
2020/12/23 09:49:17;;;;;;;30.35;22.10;;;;;;;10.87;100.00;100941.72;5003462;28;20040;-76
2020/12/23 09:51:49;;;;;;;26.17;20.65;;;;;;;10.95;100.00;100940.97;5007017;28;20398;-78
2020/12/23 09:54:14;;;;;;;25.20;20.02;;;;;;;10.93;100.00;100929.59;4983958;28;20136;-77
2020/12/23 09:56:51;;;;;;;28.33;21.58;;;;;;;10.84;100.00;100914.50;5005117;28;21405;-77
2020/12/23 09:59:18;;;;;;;24.75;20.08;;;;;;;10.89;100.00;100906.91;4989345;28;20025;-77
2020/12/23 10:01:43;;;;;;;24.40;18.40;;;;;;;10.62;100.00;100865.09;5019869;28;20049;-77
2020/12/23 10:04:09;;;;;;;23.10;18.80;;;;;;;10.99;100.00;100923.66;4985794;28;21305;-77
2020/12/23 10:06:35;;;;;;;26.50;16.58;;;;;;;10.98;100.00;100919.31;5037276;28;20025;-77
2020/12/23 10:09:01;;;;;;;21.33;15.88;;;;;;;10.79;100.00;100895.47;5034250;28;20459;-77
2020/12/23 10:11:27;;;;;;;22.15;14.35;;;;;;;10.94;100.00;100923.28;4989759;28;20025;-77
2020/12/23 10:13:52;;;;;;;17.35;12.68;;;;;;;10.91;100.00;100925.41;5032551;28;20049;-77
2020/12/23 10:16:18;;;;;;;13.95;11.43;;;;;;;10.91;100.00;100915.59;5009200;28;20017;-77
2020/12/23 10:18:43;;;;;;;11.73;9.90;;;;;;;10.51;100.00;100850.19;5016389;28;20380;-76
2020/12/23 10:21:09;;;;;;;13.60;9.73;;;;;;;10.90;100.00;100913.91;5010947;28;20045;-77
2020/12/23 10:23:35;;;;;;;11.60;9.48;;;;;;;10.90;100.00;100907.72;4992514;28;20048;-77
2020/12/23 10:26:00;;;;;;;15.43;10.85;;;;;;;10.90;100.00;100905.03;5025414;28;20143;-77
2020/12/23 10:28:26;;;;;;;12.27;9.88;;;;;;;10.90;100.00;100902.38;4998951;28;20037;-76
2020/12/23 10:30:51;;;;;;;16.45;11.45;;;;;;;10.82;100.00;100879.13;5006375;28;20434;-77
2020/12/23 10:33:17;;;;;;;16.75;14.13;;;;;;;10.94;100.00;100890.41;4998110;28;20484;-76
2020/12/23 10:35:43;;;;;;;58.65;52.38;;;;;;;10.95;100.00;100884.06;5025290;28;20566;-76
2020/12/23 10:38:08;;;;;;;25.48;18.38;;;;;;;10.95;100.00;100889.41;5012447;28;20108;-77
2020/12/23 10:40:34;;;;;;;29.17;20.55;;;;;;;10.88;100.00;100882.00;5011909;28;20036;-77
2020/12/23 10:43:03;;;;;;;29.83;20.65;;;;;;;10.87;100.00;100876.84;5028917;28;20456;-76
2020/12/23 10:45:29;;;;;;;30.08;22.50;;;;;;;10.76;100.00;100837.03;4999128;28;20041;-77
2020/12/23 10:47:54;;;;;;;32.67;23.70;;;;;;;10.59;100.00;100810.22;5022700;28;20044;-76
2020/12/23 10:50:20;;;;;;;42.58;25.58;;;;;;;10.86;100.00;100856.47;5001564;28;20483;-76
2020/12/23 10:52:45;;;;;;;32.35;22.55;;;;;;;10.88;100.00;100852.63;5019049;28;20043;-76
2020/12/23 10:55:11;;;;;;;31.48;22.85;;;;;;;10.90;100.00;100841.81;5039427;28;20025;-76
2020/12/23 10:57:37;;;;;;;37.30;23.90;;;;;;;10.88;100.00;100831.28;4991732;28;20105;-78
2020/12/23 11:00:07;;;;;;;32.35;23.23;;;;;;;10.93;100.00;100828.13;5010389;28;20227;-76
2020/12/23 11:02:33;;;;;;;29.83;20.67;;;;;;;10.91;100.00;100829.31;5010737;28;20037;-77
2020/12/23 11:04:58;;;;;;;30.20;22.05;;;;;;;10.91;100.00;100826.63;5027887;28;20127;-75